Time;durP1;ratioP1;P1;durP2;ratioP2;P2;SDS_P1;SDS_P2;PMS_P1;PMS_P2;Temp;Humidity;BMP_temperature;BMP_pressure;BME280_temperature;BME280_humidity;BME280_pressure;Samples;Min_cycle;Max_cycle;Signal;HPM_P1;HPM_P2
2023/11/24 00:01:21;;;;;;;4.53;2.03;;;;;;;21.07;42.24;101065.81;4998023;28;20048;-75
2023/11/24 00:03:46;;;;;;;3.53;1.30;;;;;;;21.06;42.22;101078.25;5045246;28;20043;-76
2023/11/24 00:06:12;;;;;;;3.33;1.13;;;;;;;21.07;42.19;101084.34;5010185;28;20051;-75
2023/11/24 00:08:38;;;;;;;2.67;0.95;;;;;;;21.08;42.26;101075.41;5053385;28;20432;-75
2023/11/24 00:11:04;;;;;;;2.83;1.42;;;;;;;21.02;42.15;101070.84;5016174;28;20044;-76
2023/11/24 00:13:29;;;;;;;2.70;1.30;;;;;;;21.05;42.44;101081.91;5039390;28;20037;-75
2023/11/24 00:15:55;;;;;;;4.03;1.42;;;;;;;20.97;42.47;101068.72;5012894;28;20041;-75
2023/11/24 00:18:21;;;;;;;4.50;1.30;;;;;;;21.04;42.10;101072.31;5058448;28;20044;-75
2023/11/24 00:20:47;;;;;;;3.35;1.30;;;;;;;21.03;42.33;101067.19;5017875;28;20027;-75
2023/11/24 00:23:13;;;;;;;3.08;1.17;;;;;;;20.95;42.28;101062.78;5061852;28;20037;-75
2023/11/24 00:25:39;;;;;;;1.70;1.05;;;;;;;21.04;42.43;101074.97;5004721;28;20025;-75
2023/11/24 00:28:04;;;;;;;3.28;1.35;;;;;;;21.03;42.43;101072.50;5071562;28;20040;-75
2023/11/24 00:30:35;;;;;;;2.83;1.33;;;;;;;21.00;42.53;101060.41;5017850;28;20040;-75
2023/11/24 00:33:02;;;;;;;3.28;1.42;;;;;;;21.03;42.18;101077.78;5006493;28;20052;-76
2023/11/24 00:35:27;;;;;;;3.25;1.45;;;;;;;21.00;42.26;101072.81;5010869;28;20036;-73
2023/11/24 00:37:53;;;;;;;2.80;1.30;;;;;;;21.03;42.20;101083.09;5062553;28;20045;-73
2023/11/24 00:40:18;;;;;;;2.40;1.42;;;;;;;20.99;42.27;101082.59;5013060;28;20068;-73
2023/11/24 00:42:44;;;;;;;2.25;1.13;;;;;;;21.02;42.61;101078.78;5063637;28;20047;-73
2023/11/24 00:45:11;;;;;;;2.10;1.35;;;;;;;21.01;42.14;101077.97;4990093;28;20036;-73
2023/11/24 00:47:36;;;;;;;2.85;1.92;;;;;;;21.02;42.43;101081.44;5059612;28;20056;-74
2023/11/24 00:50:02;;;;;;;4.60;1.40;;;;;;;20.95;42.25;101052.19;5014629;28;20406;-73
2023/11/24 00:52:31;;;;;;;2.83;1.35;;;;;;;21.02;42.37;101062.91;5059194;28;20044;-73
2023/11/24 00:55:03;;;;;;;3.80;1.45;;;;;;;20.96;42.29;101075.03;5020483;28;20443;-73
2023/11/24 00:57:29;;;;;;;3.58;1.40;;;;;;;21.00;42.10;101068.34;5054529;28;20055;-73
2023/11/24 00:59:54;;;;;;;2.50;1.15;;;;;;;21.00;42.24;101059.59;4986712;28;20045;-73
2023/11/24 01:02:20;;;;;;;1.92;1.10;;;;;;;20.98;42.26;101065.06;5034500;28;20044;-73
2023/11/24 01:04:48;;;;;;;2.30;1.40;;;;;;;20.87;42.36;101044.34;5001382;28;20143;-73
2023/11/24 01:07:14;;;;;;;2.20;1.20;;;;;;;20.98;42.10;101053.66;5047203;28;20040;-73
2023/11/24 01:09:39;;;;;;;2.08;1.15;;;;;;;20.98;42.15;101062.41;5021060;28;20032;-73
2023/11/24 01:12:05;;;;;;;3.20;1.20;;;;;;;20.96;42.29;101066.25;5040462;28;20047;-73
2023/11/24 01:14:30;;;;;;;1.88;1.23;;;;;;;20.98;42.12;101074.84;5016125;28;20051;-74
2023/11/24 01:16:56;;;;;;;4.45;1.10;;;;;;;20.78;42.24;101042.78;5068770;28;20041;-73
2023/11/24 01:19:51;;;;;;;2.67;1.20;;;;;;;20.93;42.25;101070.09;4981014;28;20653;-73
2023/11/24 01:22:25;;;;;;;4.63;1.40;;;;;;;20.90;41.88;101062.53;5010655;28;1165444;-73
2023/11/24 01:24:51;;;;;;;3.33;1.38;;;;;;;20.94;42.35;101049.75;5021647;28;20127;-73
2023/11/24 01:27:18;;;;;;;3.67;1.48;;;;;;;20.93;42.24;101051.56;5060870;28;20040;-73
2023/11/24 01:29:43;;;;;;;3.63;1.23;;;;;;;20.87;42.01;101041.72;5024487;28;20040;-73
2023/11/24 01:32:09;;;;;;;1.98;1.13;;;;;;;20.84;42.35;101041.25;5046344;28;20543;-73
2023/11/24 01:34:34;;;;;;;3.70;1.20;;;;;;;20.94;42.30;101058.50;5017573;28;20385;-73
2023/11/24 01:37:00;;;;;;;2.67;1.17;;;;;;;20.93;42.08;101056.84;5056095;28;20041;-74
2023/11/24 01:39:26;;;;;;;3.03;1.48;;;;;;;20.93;42.34;101062.16;4993135;28;20039;-73
2023/11/24 01:41:52;;;;;;;2.50;1.33;;;;;;;20.93;42.29;101071.91;5072480;28;20254;-73
2023/11/24 01:44:18;;;;;;;4.03;2.15;;;;;;;20.92;42.42;101070.28;5009368;28;20072;-73
2023/11/24 01:46:44;;;;;;;4.82;1.55;;;;;;;20.88;42.28;101072.47;5050926;28;20056;-73
2023/11/24 01:49:10;;;;;;;2.42;1.20;;;;;;;20.93;42.17;101071.91;5018894;28;20729;-73
2023/11/24 01:51:36;;;;;;;2.60;1.38;;;;;;;20.92;42.06;101072.94;5054899;28;20046;-73
2023/11/24 01:54:04;;;;;;;3.45;1.15;;;;;;;20.92;42.23;101064.97;5008242;28;20098;-73
2023/11/24 01:56:30;;;;;;;4.10;1.50;;;;;;;20.85;42.04;101056.13;5047932;28;20115;-73
2023/11/24 01:58:57;;;;;;;2.25;1.27;;;;;;;20.91;41.92;101060.69;5050549;28;20039;-74
2023/11/24 02:01:24;;;;;;;2.88;1.23;;;;;;;20.90;42.07;101064.34;5005103;28;25785;-73
2023/11/24 02:03:50;;;;;;;3.08;1.15;;;;;;;20.82;42.06;101046.69;5066143;28;20056;-73
2023/11/24 02:06:16;;;;;;;4.18;1.83;;;;;;;20.91;42.19;101066.00;4994227;28;20167;-73
2023/11/24 02:08:42;;;;;;;2.97;1.25;;;;;;;20.87;42.19;101048.84;5049356;28;20040;-74
2023/11/24 02:11:08;;;;;;;4.53;1.98;;;;;;;20.92;42.20;101075.56;5021603;28;20371;-74
2023/11/24 02:13:34;;;;;;;2.42;1.02;;;;;;;20.86;42.12;101057.78;5059661;28;20037;-73
2023/11/24 02:16:01;;;;;;;2.22;1.33;;;;;;;20.85;42.15;101049.00;5005150;28;20041;-74
2023/11/24 02:18:27;;;;;;;2.78;1.45;;;;;;;20.88;41.84;101053.94;5034669;28;20045;-73
2023/11/24 02:20:52;;;;;;;3.80;1.50;;;;;;;20.80;42.20;101046.88;5078455;28;20044;-73
2023/11/24 02:23:18;;;;;;;1.73;1.10;;;;;;;20.87;42.03;101062.06;5003116;28;20071;-73
2023/11/24 02:25:44;;;;;;;1.63;1.10;;;;;;;20.87;42.13;101068.19;5065314;28;20542;-73
2023/11/24 02:28:09;;;;;;;2.13;1.35;;;;;;;20.89;42.14;101057.41;5013117;28;20048;-73
2023/11/24 02:30:36;;;;;;;1.95;1.15;;;;;;;20.80;41.99;101048.72;5051749;28;20035;-73
2023/11/24 02:33:02;;;;;;;2.50;1.23;;;;;;;20.87;41.84;101054.94;5018204;28;20130;-74
2023/11/24 02:35:29;;;;;;;2.50;1.30;;;;;;;20.88;42.10;101046.00;5047687;28;20033;-73
2023/11/24 02:37:56;;;;;;;2.08;1.00;;;;;;;20.84;42.15;101050.03;4997480;28;20037;-73
2023/11/24 02:40:21;;;;;;;2.65;1.38;;;;;;;20.85;41.90;101048.19;5058530;28;20048;-73
2023/11/24 02:42:47;;;;;;;2.92;1.40;;;;;;;20.80;42.25;101041.59;4989439;28;20090;-73
2023/11/24 02:45:12;;;;;;;3.78;1.30;;;;;;;20.83;42.08;101048.38;5066021;28;20054;-73
2023/11/24 02:47:38;;;;;;;1.83;1.02;;;;;;;20.80;41.85;101038.94;5015179;28;20454;-73
2023/11/24 02:50:04;;;;;;;3.70;1.40;;;;;;;20.81;42.09;101032.66;5034750;28;20041;-73
2023/11/24 02:52:30;;;;;;;2.28;1.30;;;;;;;20.82;41.94;101025.53;5006026;28;20087;-73
2023/11/24 02:54:55;;;;;;;3.00;1.15;;;;;;;20.77;42.13;101017.31;5033843;28;20155;-73
2023/11/24 02:57:21;;;;;;;2.08;1.05;;;;;;;20.76;41.83;101008.56;5008076;28;20044;-73
2023/11/24 02:59:47;;;;;;;2.47;1.60;;;;;;;20.77;42.08;101001.44;5067511;28;20037;-73
2023/11/24 03:02:12;;;;;;;2.35;1.25;;;;;;;20.77;42.00;101001.44;4987021;28;20036;-73
2023/11/24 03:04:38;;;;;;;2.80;1.50;;;;;;;20.79;42.00;101007.38;5047034;28;20703;-73
2023/11/24 03:07:09;;;;;;;3.33;1.10;;;;;;;20.65;42.02;100985.22;5056363;28;20045;-73
2023/11/24 03:09:35;;;;;;;2.05;0.85;;;;;;;20.77;41.85;101001.44;5041496;28;20094;-73
2023/11/24 03:12:02;;;;;;;3.05;1.25;;;;;;;20.77;42.00;101001.44;5049780;28;20056;-73
2023/11/24 03:14:29;;;;;;;2.63;1.00;;;;;;;20.75;41.63;100998.16;5034882;28;20044;-74
2023/11/24 03:16:55;;;;;;;2.67;1.10;;;;;;;20.72;41.93;100993.22;5051588;28;20052;-73
2023/11/24 03:19:21;;;;;;;2.28;1.00;;;;;;;20.79;41.70;100994.13;4997163;28;20119;-73
2023/11/24 03:21:47;;;;;;;2.10;1.10;;;;;;;20.58;41.78;100972.88;5060183;28;20064;-73
2023/11/24 03:24:14;;;;;;;2.15;1.05;;;;;;;20.76;41.80;101021.78;5014747;28;20051;-73
2023/11/24 03:26:40;;;;;;;2.20;1.17;;;;;;;20.68;41.76;101013.13;5057528;28;20107;-73
2023/11/24 03:29:06;;;;;;;2.78;1.40;;;;;;;20.74;41.70;101015.03;5017018;28;20100;-73
2023/11/24 03:31:32;;;;;;;2.30;1.20;;;;;;;20.75;41.77;101006.09;5053672;28;20085;-73
2023/11/24 03:33:59;;;;;;;2.05;1.20;;;;;;;20.75;41.61;101004.28;5010306;28;20044;-73
2023/11/24 03:36:25;;;;;;;1.83;0.93;;;;;;;20.76;41.72;101008.56;5025766;28;20034;-73
2023/11/24 03:38:50;;;;;;;2.65;1.38;;;;;;;20.68;41.65;100992.78;5002945;28;20514;-73
2023/11/24 03:41:16;;;;;;;3.05;1.15;;;;;;;20.66;41.79;100988.69;5064105;28;20056;-73
2023/11/24 03:43:41;;;;;;;3.63;1.17;;;;;;;20.57;41.63;100977.34;5002830;28;20036;-73
2023/11/24 03:46:07;;;;;;;3.20;1.20;;;;;;;20.75;41.62;101011.38;5063771;28;20032;-73
2023/11/24 03:48:32;;;;;;;1.85;0.85;;;;;;;20.74;41.74;101007.09;4996021;28;20036;-73
2023/11/24 03:50:58;;;;;;;2.45;0.85;;;;;;;20.66;41.68;101002.72;5061914;28;20109;-73
2023/11/24 03:53:25;;;;;;;3.53;1.10;;;;;;;20.74;41.78;101004.47;4998933;28;20032;-73
2023/11/24 03:55:50;;;;;;;1.85;0.90;;;;;;;20.74;41.59;101018.50;5043092;28;21067;-73
2023/11/24 03:58:16;;;;;;;2.17;1.00;;;;;;;20.73;41.63;101000.16;5013483;28;20040;-73
2023/11/24 04:00:42;;;;;;;5.10;1.33;;;;;;;20.71;41.53;100975.72;5066263;28;20485;-73
2023/11/24 04:03:08;;;;;;;1.88;0.90;;;;;;;20.72;41.54;100972.88;5014835;28;20036;-74
2023/11/24 04:05:33;;;;;;;2.45;1.20;;;;;;;20.73;41.49;100973.69;5042751;28;20505;-73
2023/11/24 04:07:59;;;;;;;2.22;1.20;;;;;;;20.71;41.64;100973.88;4988090;28;20098;-73
2023/11/24 04:10:24;;;;;;;1.55;0.80;;;;;;;20.70;41.56;100980.19;5063228;28;20487;-73
2023/11/24 04:12:51;;;;;;;1.65;0.90;;;;;;;20.70;41.54;100979.38;5021383;28;20123;-73
2023/11/24 04:15:17;;;;;;;1.90;1.20;;;;;;;20.57;41.64;100958.81;5039390;28;20048;-73
2023/11/24 04:17:43;;;;;;;1.77;0.98;;;;;;;20.66;41.74;100978.09;5004141;28;20168;-73
2023/11/24 04:20:09;;;;;;;1.50;0.82;;;;;;;20.69;41.43;101007.66;5046871;28;20399;-75
2023/11/24 04:22:36;;;;;;;2.08;0.88;;;;;;;20.69;41.63;101015.59;5006359;28;21739;-72
2023/11/24 04:25:02;;;;;;;2.85;0.77;;;;;;;20.70;41.57;101011.13;5052190;28;20040;-73
2023/11/24 04:27:27;;;;;;;1.17;0.73;;;;;;;20.69;41.65;101033.28;5010777;28;20669;-73
2023/11/24 04:29:54;;;;;;;2.80;1.33;;;;;;;20.67;41.71;101011.50;5066384;28;20059;-73
2023/11/24 04:32:22;;;;;;;1.50;0.73;;;;;;;20.61;41.74;100980.44;4982731;28;20479;-73
2023/11/24 04:34:48;;;;;;;1.35;0.73;;;;;;;20.55;41.59;100958.19;5058294;28;20072;-73
2023/11/24 04:37:14;;;;;;;1.42;0.82;;;;;;;20.64;41.54;100957.06;5032017;28;20561;-74
2023/11/24 04:39:40;;;;;;;2.72;1.20;;;;;;;20.66;41.63;100960.38;5043440;28;20024;-74
2023/11/24 04:42:06;;;;;;;3.72;1.08;;;;;;;20.58;41.67;100954.34;5061188;28;20701;-73
2023/11/24 04:44:32;;;;;;;1.05;0.80;;;;;;;20.66;41.52;100967.50;5012828;28;20033;-73
2023/11/24 04:46:59;;;;;;;1.80;0.70;;;;;;;20.65;41.91;100965.88;5060674;28;20128;-73
2023/11/24 04:49:25;;;;;;;2.03;1.00;;;;;;;20.64;41.84;100978.25;5016625;28;20036;-74
2023/11/24 04:51:51;;;;;;;1.75;0.80;;;;;;;20.65;41.53;100973.81;5046594;28;20137;-74
2023/11/24 04:54:16;;;;;;;1.48;0.80;;;;;;;20.60;41.70;100955.81;5008944;28;20561;-74
2023/11/24 04:56:42;;;;;;;2.08;0.90;;;;;;;20.64;41.65;100940.38;5055461;28;20089;-73
2023/11/24 04:59:08;;;;;;;2.10;0.90;;;;;;;20.62;41.65;100929.16;5015625;28;20490;-75
2023/11/24 05:01:33;;;;;;;1.20;0.80;;;;;;;20.62;41.81;100929.16;5057324;28;20040;-74
2023/11/24 05:03:59;;;;;;;1.38;0.80;;;;;;;20.63;41.87;100917.56;5011221;28;20460;-74
2023/11/24 05:06:28;;;;;;;1.95;0.80;;;;;;;20.60;41.57;100917.94;5065305;28;20037;-74
2023/11/24 05:08:53;;;;;;;1.35;0.80;;;;;;;20.43;41.83;100907.53;5005641;28;20067;-74
2023/11/24 05:11:19;;;;;;;2.28;0.90;;;;;;;20.60;41.73;100928.53;5057218;28;20431;-74
2023/11/24 05:13:45;;;;;;;1.15;0.52;;;;;;;20.54;41.74;100938.03;5004849;28;20047;-74
2023/11/24 05:16:10;;;;;;;1.77;0.90;;;;;;;20.58;41.61;100976.34;5058611;28;20110;-74
2023/11/24 05:18:36;;;;;;;2.75;0.65;;;;;;;20.61;41.56;100980.44;5006458;28;20134;-74
2023/11/24 05:21:02;;;;;;;1.92;0.80;;;;;;;20.59;41.66;100961.28;5061899;28;20053;-74
2023/11/24 05:23:28;;;;;;;1.27;1.08;;;;;;;20.55;41.77;100939.66;5019043;28;20067;-74
2023/11/24 05:25:56;;;;;;;0.28;0.20;;;;;;;20.59;41.49;100937.47;5035424;28;20025;-74
2023/11/24 05:28:22;;;;;;;1.95;0.95;;;;;;;20.54;41.59;100910.75;5012911;28;20060;-74
2023/11/24 05:30:48;;;;;;;1.13;0.50;;;;;;;20.58;41.58;100914.66;5043981;28;20386;-74
2023/11/24 05:33:13;;;;;;;2.45;0.88;;;;;;;20.57;41.56;100905.91;4991531;28;20036;-74
2023/11/24 05:35:39;;;;;;;1.23;0.77;;;;;;;20.57;41.45;100884.75;5040736;28;20029;-74
2023/11/24 05:38:05;;;;;;;0.82;0.57;;;;;;;20.50;41.65;100871.44;4989724;28;20048;-74
2023/11/24 05:40:30;;;;;;;1.20;0.70;;;;;;;20.55;41.78;100884.09;5053290;28;20049;-74
2023/11/24 05:42:56;;;;;;;0.95;0.70;;;;;;;20.58;41.60;100896.13;5016128;28;20663;-74
2023/11/24 05:45:21;;;;;;;0.93;0.60;;;;;;;20.33;41.63;100875.22;5061962;28;20494;-74
2023/11/24 05:47:47;;;;;;;0.82;0.60;;;;;;;20.31;41.74;100879.06;5004940;28;20039;-74
2023/11/24 05:50:18;;;;;;;1.90;0.95;;;;;;;20.55;41.63;100904.44;5072836;28;20118;-74
2023/11/24 05:52:43;;;;;;;0.80;0.70;;;;;;;20.55;41.62;100912.38;5004458;28;20044;-74
2023/11/24 05:55:09;;;;;;;0.52;0.50;;;;;;;20.47;41.52;100887.69;5069971;28;20044;-74
2023/11/24 05:57:35;;;;;;;1.90;0.90;;;;;;;20.37;41.63;100873.84;5012159;28;21031;-74
2023/11/24 06:00:01;;;;;;;1.48;0.73;;;;;;;20.55;41.59;100921.16;5074618;28;20092;-74
2023/11/24 06:02:26;;;;;;;2.45;0.90;;;;;;;20.53;41.79;100920.50;5004423;28;21159;-74
2023/11/24 06:04:52;;;;;;;1.70;0.93;;;;;;;20.43;41.75;100893.50;5065288;28;20036;-74
2023/11/24 06:07:18;;;;;;;1.77;0.98;;;;;;;20.44;41.64;100892.47;5002614;28;20191;-74
2023/11/24 06:09:44;;;;;;;1.38;0.85;;;;;;;20.50;41.57;100912.94;5071949;28;20028;-74
2023/11/24 06:12:10;;;;;;;1.27;0.65;;;;;;;20.48;41.70;100902.53;5021451;28;20120;-74
2023/11/24 06:14:37;;;;;;;1.92;0.90;;;;;;;20.51;41.77;100931.28;5038236;28;20124;-74
2023/11/24 06:17:04;;;;;;;2.08;0.80;;;;;;;20.52;41.70;100932.09;5038593;28;20045;-74
2023/11/24 06:19:30;;;;;;;1.40;0.60;;;;;;;20.54;41.56;100916.03;5034569;28;20124;-74
2023/11/24 06:21:56;;;;;;;2.13;1.00;;;;;;;20.52;41.75;100905.63;5059101;28;20147;-74
2023/11/24 06:24:21;;;;;;;2.47;0.80;;;;;;;20.51;41.56;100901.34;5019748;28;20144;-73
2023/11/24 06:26:47;;;;;;;1.30;0.68;;;;;;;20.50;41.76;100900.53;5067240;28;20036;-73
2023/11/24 06:29:14;;;;;;;1.25;0.80;;;;;;;20.50;41.50;100895.25;5018016;28;20047;-73
2023/11/24 06:31:40;;;;;;;1.40;0.60;;;;;;;20.51;41.69;100891.59;5054935;28;20143;-73
2023/11/24 06:34:05;;;;;;;1.00;0.77;;;;;;;20.49;41.64;100893.59;5050060;28;20085;-74
2023/11/24 06:36:31;;;;;;;1.75;0.90;;;;;;;20.41;41.59;100876.97;5048596;28;20090;-73
2023/11/24 06:38:57;;;;;;;1.27;0.90;;;;;;;20.52;41.59;100897.69;5017809;28;20689;-74
2023/11/24 06:41:23;;;;;;;1.17;0.50;;;;;;;20.49;41.73;100898.06;5057304;28;20044;-73
2023/11/24 06:43:49;;;;;;;1.00;0.52;;;;;;;20.48;41.61;100917.59;4990337;28;20513;-73
2023/11/24 06:46:14;;;;;;;0.82;0.60;;;;;;;20.50;41.60;100912.94;5048647;28;20032;-73
2023/11/24 06:48:40;;;;;;;1.63;0.95;;;;;;;20.49;41.75;100885.66;5011807;28;20052;-73
2023/11/24 06:51:07;;;;;;;1.15;0.80;;;;;;;20.47;41.62;100877.09;5062457;28;20091;-74
2023/11/24 06:53:32;;;;;;;1.15;0.60;;;;;;;20.46;41.84;100875.44;5010479;28;20040;-73
2023/11/24 06:55:58;;;;;;;1.60;0.65;;;;;;;20.39;41.70;100857.81;5067545;28;20033;-73
2023/11/24 06:58:24;;;;;;;1.38;0.70;;;;;;;20.49;41.65;100871.63;5017262;28;20179;-73
2023/11/24 07:00:51;;;;;;;1.13;0.70;;;;;;;20.38;41.55;100853.53;5072770;28;20356;-73
2023/11/24 07:03:19;;;;;;;0.75;0.60;;;;;;;20.47;41.87;100869.16;5013101;28;20041;-73
2023/11/24 07:05:46;;;;;;;1.15;0.50;;;;;;;20.50;42.00;100873.25;5071869;28;20036;-73
2023/11/24 07:08:12;;;;;;;1.45;0.77;;;;;;;20.39;41.71;100850.69;5003973;28;20081;-74
2023/11/24 07:10:38;;;;;;;0.98;0.60;;;;;;;20.45;41.64;100857.91;5065096;28;20084;-73
2023/11/24 07:13:03;;;;;;;1.30;0.90;;;;;;;20.38;41.72;100842.94;5005160;28;20035;-73
2023/11/24 07:15:29;;;;;;;2.13;0.85;;;;;;;20.45;41.88;100849.97;5065873;28;20044;-74
2023/11/24 07:17:55;;;;;;;1.42;0.70;;;;;;;20.49;41.89;100850.47;5020880;28;20036;-73
2023/11/24 07:20:21;;;;;;;1.52;0.70;;;;;;;20.46;41.71;100853.44;5067457;28;20032;-73
2023/11/24 07:22:47;;;;;;;2.05;0.65;;;;;;;20.48;41.83;100848.81;5011093;28;20053;-73
2023/11/24 07:25:13;;;;;;;1.85;0.68;;;;;;;20.42;41.62;100846.88;5062601;28;20619;-74
2023/11/24 07:27:42;;;;;;;1.58;0.95;;;;;;;20.49;41.71;100848.63;4993220;28;20048;-74
2023/11/24 07:30:09;;;;;;;2.00;0.80;;;;;;;20.40;41.90;100841.75;5067660;28;20203;-74
2023/11/24 07:32:36;;;;;;;2.60;0.93;;;;;;;20.39;41.87;100841.94;5009282;28;20118;-73
2023/11/24 07:35:03;;;;;;;1.27;0.40;;;;;;;20.43;41.66;100854.63;5049437;28;20139;-73
2023/11/24 07:37:28;;;;;;;1.65;0.70;;;;;;;20.43;41.69;100844.06;5014171;28;20044;-73
2023/11/24 07:39:54;;;;;;;0.90;0.52;;;;;;;20.48;41.82;100854.94;5045896;28;20055;-74
2023/11/24 07:42:21;;;;;;;1.98;0.65;;;;;;;20.37;41.93;100838.66;5050578;28;20443;-73
2023/11/24 07:44:48;;;;;;;1.50;0.70;;;;;;;20.48;41.85;100841.69;5066252;28;20628;-73
2023/11/24 07:47:14;;;;;;;0.55;0.40;;;;;;;20.52;41.64;100836.84;5006086;28;22137;-73
2023/11/24 07:49:41;;;;;;;2.45;0.73;;;;;;;20.79;41.15;100840.63;5025374;28;20158;-74
2023/11/24 07:52:06;;;;;;;1.20;0.57;;;;;;;20.90;40.96;100828.75;5023298;28;20044;-74
2023/11/24 07:54:32;;;;;;;1.83;0.80;;;;;;;20.90;40.96;100824.28;5053790;28;20121;-73
2023/11/24 07:56:58;;;;;;;2.08;0.88;;;;;;;20.84;41.08;100808.34;5025696;28;20490;-73
2023/11/24 07:59:24;;;;;;;1.88;0.40;;;;;;;20.91;41.24;100801.28;5041206;28;20435;-73
2023/11/24 08:01:49;;;;;;;1.23;0.57;;;;;;;20.84;41.25;100790.63;5063673;28;20051;-74
2023/11/24 08:04:15;;;;;;;1.23;0.63;;;;;;;20.87;41.36;100800.03;5003751;28;20032;-74
2023/11/24 08:06:40;;;;;;;1.35;0.75;;;;;;;20.76;41.26;100791.56;5070116;28;20033;-73
2023/11/24 08:09:08;;;;;;;2.00;1.08;;;;;;;20.77;41.50;100782.59;5018767;28;21509;-73
2023/11/24 08:11:36;;;;;;;0.95;0.75;;;;;;;20.80;41.31;100786.69;5066285;28;20080;-73
2023/11/24 08:14:02;;;;;;;1.70;0.75;;;;;;;20.79;41.31;100780.59;5006044;28;20051;-74
2023/11/24 08:16:28;;;;;;;2.05;0.95;;;;;;;20.77;41.41;100774.66;5064114;28;20063;-73
2023/11/24 08:18:53;;;;;;;1.65;0.73;;;;;;;20.70;41.68;100771.13;5007589;28;20409;-74
2023/11/24 08:21:19;;;;;;;0.80;0.50;;;;;;;20.62;41.66;100751.91;5060359;28;20117;-74
2023/11/24 08:23:45;;;;;;;1.25;0.70;;;;;;;20.74;41.45;100775.03;5012825;28;20605;-73
2023/11/24 08:26:18;;;;;;;0.57;0.45;;;;;;;20.74;41.58;100776.88;5039729;28;20036;-74
2023/11/24 08:28:48;;;;;;;2.10;0.88;;;;;;;20.73;41.67;100776.06;5012585;28;20437;-74
2023/11/24 08:31:16;;;;;;;1.15;0.70;;;;;;;20.75;41.75;100803.16;5062837;28;20040;-73
2023/11/24 08:33:43;;;;;;;1.05;0.70;;;;;;;20.68;41.72;100809.38;5012551;28;21090;-73
2023/11/24 08:36:09;;;;;;;1.70;0.88;;;;;;;20.67;41.57;100789.22;5062958;28;20039;-73
2023/11/24 08:38:34;;;;;;;1.10;0.47;;;;;;;20.70;41.75;100810.00;4996626;28;20081;-73
2023/11/24 08:41:00;;;;;;;0.90;0.50;;;;;;;20.70;41.57;100794.94;5039298;28;20055;-74
2023/11/24 08:43:25;;;;;;;1.67;0.88;;;;;;;20.70;41.59;100799.44;4977210;28;20045;-74
2023/11/24 08:45:51;;;;;;;2.05;0.80;;;;;;;20.71;41.30;100795.78;5060979;28;20617;-73
2023/11/24 08:48:16;;;;;;;2.05;0.70;;;;;;;20.70;41.61;100794.13;4995306;28;20093;-73
2023/11/24 08:50:43;;;;;;;2.72;1.20;;;;;;;20.63;41.30;100788.75;5064113;28;20542;-73
2023/11/24 08:53:09;;;;;;;2.33;0.75;;;;;;;20.71;41.35;100782.53;5048108;28;20047;-73
2023/11/24 08:55:34;;;;;;;0.95;0.50;;;;;;;20.66;41.31;100777.81;5061520;28;20045;-73
2023/11/24 08:58:00;;;;;;;1.25;0.98;;;;;;;20.74;41.27;100790.09;4992001;28;20052;-74
2023/11/24 09:00:30;;;;;;;2.10;0.90;;;;;;;20.73;41.21;100778.69;5064480;28;20036;-74
2023/11/24 09:02:57;;;;;;;2.77;0.80;;;;;;;20.73;41.36;100785.81;5014616;28;20491;-74
2023/11/24 09:05:24;;;;;;;2.08;0.75;;;;;;;20.88;41.07;100773.38;5061063;28;20506;-74
2023/11/24 09:07:49;;;;;;;2.47;0.98;;;;;;;20.98;40.82;100757.16;5009877;28;20041;-74
2023/11/24 09:10:15;;;;;;;1.92;0.90;;;;;;;21.10;40.26;100758.31;5060102;28;20044;-74
2023/11/24 09:12:40;;;;;;;1.17;0.73;;;;;;;21.11;40.62;100763.41;5004034;28;20098;-74
2023/11/24 09:15:06;;;;;;;1.27;1.00;;;;;;;21.03;40.71;100762.72;5061428;28;20546;-74
2023/11/24 09:17:34;;;;;;;1.38;1.02;;;;;;;21.03;40.85;100757.44;5015033;28;20036;-74
2023/11/24 09:19:59;;;;;;;1.55;0.55;;;;;;;21.08;40.53;100755.03;5042366;28;20062;-74
2023/11/24 09:22:25;;;;;;;2.00;0.93;;;;;;;21.02;40.69;100751.31;5011068;28;20060;-74
2023/11/24 09:24:51;;;;;;;1.08;0.65;;;;;;;20.96;40.66;100740.66;5059180;28;20569;-74
2023/11/24 09:27:17;;;;;;;3.38;0.80;;;;;;;20.99;40.81;100750.84;5006276;28;20159;-74
2023/11/24 09:29:42;;;;;;;1.33;0.70;;;;;;;20.99;40.67;100745.56;5039504;28;20087;-74
2023/11/24 09:32:08;;;;;;;1.20;0.70;;;;;;;20.81;40.93;100720.34;5015630;28;20356;-75
2023/11/24 09:34:35;;;;;;;1.38;0.80;;;;;;;20.81;40.88;100707.13;5065992;28;20031;-73
2023/11/24 09:37:02;;;;;;;2.58;0.90;;;;;;;20.87;40.71;100718.78;5003611;28;20422;-73
2023/11/24 09:39:28;;;;;;;2.10;1.05;;;;;;;20.88;40.99;100719.63;5051182;28;20422;-73
2023/11/24 09:41:54;;;;;;;2.17;0.98;;;;;;;20.89;40.76;100716.78;5021019;28;20041;-73
2023/11/24 09:44:20;;;;;;;1.33;0.63;;;;;;;20.85;40.99;100717.34;5043931;28;20085;-72
2023/11/24 09:46:47;;;;;;;2.45;0.85;;;;;;;20.88;40.67;100728.38;5045959;28;20036;-73
2023/11/24 09:49:16;;;;;;;0.80;0.50;;;;;;;20.88;40.70;100732.84;5030163;28;20171;-73
2023/11/24 09:51:43;;;;;;;1.20;0.75;;;;;;;20.90;40.82;100744.88;5054452;28;20089;-72
2023/11/24 09:54:11;;;;;;;3.05;0.95;;;;;;;20.89;40.69;100748.53;5001449;28;20040;-72
2023/11/24 09:56:37;;;;;;;2.55;1.10;;;;;;;20.81;40.74;100727.47;5069012;28;20715;-72
2023/11/24 09:59:08;;;;;;;1.73;0.77;;;;;;;20.87;40.88;100739.97;5060217;28;20556;-73
2023/11/24 10:01:37;;;;;;;1.85;0.77;;;;;;;20.89;40.71;100729.19;4991582;28;20051;-72
2023/11/24 10:04:05;;;;;;;2.20;0.93;;;;;;;20.88;40.70;100722.25;5066093;28;20090;-73
2023/11/24 10:06:37;;;;;;;3.13;1.23;;;;;;;20.89;40.64;100722.06;5008835;28;20190;-73
2023/11/24 10:09:05;;;;;;;2.80;1.15;;;;;;;20.88;40.65;100709.84;5065420;28;20122;-74
2023/11/24 10:11:33;;;;;;;1.77;0.93;;;;;;;20.85;40.12;100704.94;5009468;28;20164;-74
2023/11/24 10:14:00;;;;;;;2.80;1.05;;;;;;;20.87;40.40;100718.78;5028200;28;20624;-73
2023/11/24 10:16:25;;;;;;;1.70;0.98;;;;;;;20.88;40.29;100727.56;5010035;28;20154;-73
2023/11/24 10:18:55;;;;;;;2.15;1.23;;;;;;;20.84;40.13;100724.47;5057067;28;20032;-74
2023/11/24 10:21:21;;;;;;;3.00;1.33;;;;;;;20.72;39.92;100707.44;5007623;28;20052;-73
2023/11/24 10:23:46;;;;;;;2.15;1.08;;;;;;;20.61;39.99;100678.81;5058935;28;20514;-73
2023/11/24 10:26:13;;;;;;;2.63;1.17;;;;;;;20.81;40.01;100706.28;4994051;28;20040;-73
2023/11/24 10:28:40;;;;;;;1.88;0.95;;;;;;;20.77;40.03;100711.16;5066425;28;20039;-72
2023/11/24 10:31:07;;;;;;;4.28;1.35;;;;;;;20.79;40.17;100722.38;5018107;28;20039;-73
2023/11/24 10:33:34;;;;;;;6.00;1.52;;;;;;;20.68;39.75;100724.72;5065236;28;20040;-71
2023/11/24 10:35:59;;;;;;;7.63;2.00;;;;;;;20.60;39.64;100711.59;5001820;28;20477;-74
2023/11/24 10:38:32;;;;;;;4.78;1.60;;;;;;;20.56;39.57;100713.78;5063294;28;20059;-71
2023/11/24 10:41:00;;;;;;;2.35;1.48;;;;;;;20.61;39.87;100710.56;5065598;28;20562;-72
2023/11/24 10:43:34;;;;;;;5.55;1.83;;;;;;;20.58;39.96;100698.53;5007500;28;21237;-73
2023/11/24 10:46:04;;;;;;;2.35;1.13;;;;;;;20.46;39.76;100702.66;5047293;28;20037;-73
2023/11/24 10:48:52;;;;;;;4.57;1.65;;;;;;;20.40;39.09;100722.72;5011312;28;20106;-72
2023/11/24 10:51:20;;;;;;;5.18;1.48;;;;;;;20.42;39.40;100701.41;5021615;28;20671;-74
2023/11/24 10:53:52;;;;;;;4.18;1.70;;;;;;;20.91;39.10;100679.53;5045902;28;20035;-74
2023/11/24 10:56:20;;;;;;;2.30;1.27;;;;;;;21.35;38.27;100674.00;5033244;28;20083;-74
2023/11/24 10:58:52;;;;;;;3.20;1.20;;;;;;;21.59;37.83;100654.19;5047324;28;20029;-74
2023/11/24 11:01:21;;;;;;;2.65;1.20;;;;;;;21.62;37.87;100662.56;5025389;28;20043;-74
2023/11/24 11:03:48;;;;;;;;;;;;;;;21.57;38.12;100672.13;5047260;28;20041;-74
2023/11/24 11:06:44;;;;;;;4.00;1.73;;;;;;;21.41;38.66;100681.19;5042131;28;19974;-74
2023/11/24 11:12:19;;;;;;;4.20;1.30;;;;;;;21.37;38.99;100688.69;5009773;28;20044;-75
2023/11/24 11:14:46;;;;;;;2.75;1.55;;;;;;;21.34;39.06;100690.91;5059063;28;20477;-75
2023/11/24 11:17:15;;;;;;;3.80;1.27;;;;;;;21.32;38.79;100703.50;5016741;28;20397;-75
2023/11/24 11:19:43;;;;;;;3.78;1.50;;;;;;;21.30;38.99;100673.75;5054864;28;20033;-75
2023/11/24 11:22:12;;;;;;;2.95;1.10;;;;;;;21.24;39.14;100677.16;5007088;28;20060;-75
2023/11/24 11:24:38;;;;;;;4.28;1.52;;;;;;;21.20;39.44;100655.53;5063051;28;20045;-75